Time;durP1;ratioP1;P1;durP2;ratioP2;P2;SDS_P1;SDS_P2;PMS_P1;PMS_P2;Temp;Humidity;BMP_temperature;BMP_pressure;BME280_temperature;BME280_humidity;BME280_pressure;Samples;Min_cycle;Max_cycle;Signal;HPM_P1;HPM_P2
2022/02/13 00:01:36;;;;;;;18.05;10.27;;;;;;;4.77;62.12;95118.44;5061917;28;20032;-72
2022/02/13 00:04:01;;;;;;;16.48;9.20;;;;;;;4.75;62.16;95127.66;5061959;28;20033;-72
2022/02/13 00:06:27;;;;;;;19.17;9.43;;;;;;;4.75;61.91;95120.53;5061945;28;20021;-72
2022/02/13 00:08:53;;;;;;;17.05;8.60;;;;;;;4.72;61.77;95120.22;5062098;28;20017;-73
2022/02/13 00:11:19;;;;;;;13.32;8.43;;;;;;;4.62;62.19;95116.41;5061932;28;20048;-73
2022/02/13 00:13:44;;;;;;;12.30;8.52;;;;;;;4.59;62.11;95121.38;5061944;28;20115;-72
2022/02/13 00:16:10;;;;;;;17.35;8.57;;;;;;;4.57;61.63;95126.91;5061901;28;20096;-72
2022/02/13 00:18:35;;;;;;;15.65;9.57;;;;;;;4.53;61.49;95117.06;5061610;28;20020;-72
2022/02/13 00:21:00;;;;;;;15.20;8.82;;;;;;;4.46;61.32;95113.81;5061843;28;20303;-72
2022/02/13 00:23:26;;;;;;;14.38;7.88;;;;;;;4.48;60.92;95117.81;5062168;28;20013;-72
2022/02/13 00:25:51;;;;;;;13.48;7.47;;;;;;;4.37;61.02;95108.94;5061833;28;20097;-72
2022/02/13 00:28:17;;;;;;;14.68;7.80;;;;;;;4.31;61.00;95111.75;5061780;28;20035;-72
2022/02/13 00:30:46;;;;;;;15.40;9.15;;;;;;;4.34;61.13;95117.34;5061835;28;20020;-72
2022/02/13 00:33:13;;;;;;;15.30;7.75;;;;;;;4.30;61.14;95112.81;5061407;28;20021;-73
2022/02/13 00:35:41;;;;;;;11.18;6.82;;;;;;;4.32;60.92;95113.38;5061786;28;20335;-73
2022/02/13 00:38:08;;;;;;;13.73;8.15;;;;;;;4.28;61.01;95106.97;5061773;28;20036;-73
2022/02/13 00:40:33;;;;;;;15.02;8.35;;;;;;;4.26;61.17;95114.34;5061655;28;20028;-73
2022/02/13 00:42:59;;;;;;;18.13;8.02;;;;;;;4.23;61.37;95107.69;5061517;28;20029;-72
2022/02/13 00:45:25;;;;;;;17.13;7.32;;;;;;;4.20;60.90;95111.59;5061751;28;20021;-73
2022/02/13 00:47:51;;;;;;;11.52;6.82;;;;;;;4.18;60.51;95107.63;5063995;28;20035;-73
2022/02/13 00:50:16;;;;;;;14.77;7.68;;;;;;;4.19;61.07;95109.22;5065428;28;20049;-73
2022/02/13 00:52:42;;;;;;;12.18;7.65;;;;;;;4.10;60.81;95118.59;5065374;28;20227;-73
2022/02/13 00:55:08;;;;;;;14.52;7.53;;;;;;;4.06;60.91;95118.25;5065255;28;20326;-73
2022/02/13 00:57:33;;;;;;;11.88;7.22;;;;;;;4.06;61.10;95114.84;5065153;28;20059;-73
2022/02/13 00:59:59;;;;;;;16.13;7.65;;;;;;;4.10;60.74;95108.03;5065088;28;20020;-74
2022/02/13 01:02:24;;;;;;;12.50;6.50;;;;;;;4.06;60.79;95105.06;5065061;28;20025;-73
2022/02/13 01:04:49;;;;;;;11.48;6.55;;;;;;;4.15;60.05;95114.19;5064979;28;20025;-74
2022/02/13 01:07:15;;;;;;;10.57;6.40;;;;;;;4.16;59.38;95113.13;5065024;28;20099;-73
2022/02/13 01:09:40;;;;;;;11.85;6.18;;;;;;;4.10;58.96;95110.66;5064949;28;20020;-73
2022/02/13 01:12:07;;;;;;;10.30;5.25;;;;;;;4.05;59.03;95111.41;5064796;28;20033;-73
2022/02/13 01:14:32;;;;;;;9.38;5.55;;;;;;;3.98;58.96;95105.47;5064706;28;20021;-73
2022/02/13 01:16:57;;;;;;;9.65;5.15;;;;;;;4.00;59.05;95103.41;5064944;28;20096;-73
2022/02/13 01:19:23;;;;;;;10.00;5.55;;;;;;;3.90;59.17;95097.97;5064928;28;20099;-73
2022/02/13 01:21:48;;;;;;;9.38;4.82;;;;;;;3.89;58.75;95102.44;5064774;28;20032;-73
2022/02/13 01:24:14;;;;;;;12.38;5.45;;;;;;;3.82;59.10;95105.22;5064670;28;20047;-73
2022/02/13 01:26:39;;;;;;;10.88;5.57;;;;;;;3.79;58.99;95100.44;5064438;28;20059;-73
2022/02/13 01:29:04;;;;;;;9.55;5.40;;;;;;;3.81;59.23;95094.94;5064577;28;20088;-73
2022/02/13 01:31:30;;;;;;;14.40;5.72;;;;;;;3.75;58.90;95093.25;5064473;28;20014;-73
2022/02/13 01:33:56;;;;;;;14.88;6.32;;;;;;;3.73;58.90;95085.59;5064618;28;20316;-73
2022/02/13 01:36:21;;;;;;;8.02;5.47;;;;;;;3.67;59.01;95086.53;5064397;28;20032;-73
2022/02/13 01:38:47;;;;;;;11.20;6.38;;;;;;;3.67;59.20;95083.91;5064220;28;20088;-73
2022/02/13 01:41:13;;;;;;;10.27;5.38;;;;;;;3.64;59.26;95084.38;5064139;28;20074;-73
2022/02/13 01:43:38;;;;;;;8.95;5.15;;;;;;;3.67;59.61;95073.34;5064326;28;20033;-73
2022/02/13 01:46:04;;;;;;;12.80;6.18;;;;;;;3.67;59.65;95073.34;5064160;28;20029;-73
2022/02/13 01:48:30;;;;;;;16.90;5.85;;;;;;;3.66;59.69;95058.56;5064012;28;20100;-73
2022/02/13 01:50:56;;;;;;;8.38;5.00;;;;;;;3.56;59.43;95053.13;5064395;28;20087;-73
2022/02/13 01:53:22;;;;;;;9.98;5.60;;;;;;;3.61;59.49;95056.66;5063966;28;20337;-72
2022/02/13 01:55:48;;;;;;;11.25;5.75;;;;;;;3.63;59.35;95056.41;5063996;28;20024;-72
2022/02/13 01:58:15;;;;;;;13.05;6.40;;;;;;;3.64;59.34;95049.28;5063395;28;20096;-72
2022/02/13 02:00:40;;;;;;;10.90;6.05;;;;;;;3.52;59.37;95049.38;5063992;28;20031;-73
2022/02/13 02:03:06;;;;;;;10.68;5.95;;;;;;;3.49;59.34;95047.22;5063876;28;20211;-72
2022/02/13 02:05:31;;;;;;;12.82;6.50;;;;;;;3.49;59.59;95044.59;5064041;28;20017;-73
2022/02/13 02:07:57;;;;;;;12.55;5.72;;;;;;;3.42;59.81;95042.91;5064019;28;20384;-73
2022/02/13 02:10:24;;;;;;;14.68;6.32;;;;;;;3.39;59.90;95055.75;5063714;28;20017;-73
2022/02/13 02:12:49;;;;;;;11.20;5.97;;;;;;;3.31;60.21;95048.25;5063654;28;20049;-72
2022/02/13 02:15:16;;;;;;;11.23;6.10;;;;;;;3.26;60.11;95059.50;5063499;28;20047;-72
2022/02/13 02:17:41;;;;;;;9.80;5.95;;;;;;;3.26;60.12;95063.94;5063779;28;20024;-73
2022/02/13 02:20:07;;;;;;;12.52;6.22;;;;;;;3.28;59.93;95046.88;5063696;28;20223;-72
2022/02/13 02:22:33;;;;;;;8.98;4.60;;;;;;;3.23;58.44;95052.06;5063319;28;20031;-73
2022/02/13 02:24:58;;;;;;;11.20;5.20;;;;;;;3.21;55.96;95048.88;5063516;28;20092;-72
2022/02/13 02:27:24;;;;;;;8.00;4.85;;;;;;;3.17;56.23;95053.81;5063488;28;20028;-72
2022/02/13 02:29:49;;;;;;;8.25;5.10;;;;;;;3.14;57.14;95054.28;5063402;28;20033;-72
2022/02/13 02:32:16;;;;;;;9.65;5.47;;;;;;;3.18;56.46;95060.69;5063275;28;20048;-73
2022/02/13 02:34:41;;;;;;;19.23;4.93;;;;;;;3.14;56.74;95045.59;5063038;28;20327;-72
2022/02/13 02:37:10;;;;;;;8.13;4.55;;;;;;;3.16;55.59;95060.13;5063346;28;20049;-72
2022/02/13 02:39:37;;;;;;;9.10;5.05;;;;;;;3.14;55.31;95071.94;5063302;28;20028;-73
2022/02/13 02:42:02;;;;;;;9.73;5.05;;;;;;;3.13;54.36;95067.69;5063034;28;20039;-72
2022/02/13 02:44:28;;;;;;;8.27;4.60;;;;;;;3.20;54.13;95066.50;5063147;28;20021;-72
2022/02/13 02:46:54;;;;;;;8.68;4.53;;;;;;;3.22;52.62;95068.91;5062933;28;20074;-72
2022/02/13 02:49:19;;;;;;;8.52;3.80;;;;;;;3.24;51.95;95066.84;5063018;28;20091;-71
2022/02/13 02:51:45;;;;;;;10.20;3.55;;;;;;;3.29;51.50;95071.41;5062997;28;20020;-71
2022/02/13 02:54:10;;;;;;;8.45;3.83;;;;;;;3.33;50.10;95072.53;5062805;28;20204;-71
2022/02/13 02:56:36;;;;;;;7.35;2.78;;;;;;;3.33;49.16;95072.53;5063041;28;20040;-72
2022/02/13 02:59:02;;;;;;;9.18;3.10;;;;;;;3.30;48.80;95073.81;5062777;28;20113;-71
2022/02/13 03:01:28;;;;;;;8.00;3.75;;;;;;;3.32;48.25;95076.22;5062939;28;20207;-72
2022/02/13 03:03:54;;;;;;;6.85;3.00;;;;;;;3.35;48.24;95073.88;5062900;28;20252;-72
2022/02/13 03:06:19;;;;;;;8.80;3.65;;;;;;;3.37;47.79;95066.53;5062749;28;20047;-72
2022/02/13 03:08:45;;;;;;;12.25;5.57;;;;;;;3.38;47.79;95070.00;5062626;28;20315;-72
2022/02/13 03:11:10;;;;;;;7.40;3.55;;;;;;;3.37;47.80;95063.91;5061460;28;20116;-72
2022/02/13 03:13:36;;;;;;;6.25;3.17;;;;;;;3.41;47.86;95080.84;5061363;28;20029;-72
2022/02/13 03:16:01;;;;;;;8.32;3.55;;;;;;;3.44;47.43;95078.75;5062744;28;20032;-72
2022/02/13 03:18:30;;;;;;;7.00;2.95;;;;;;;3.45;46.98;95073.25;5062732;28;20036;-72
2022/02/13 03:20:57;;;;;;;6.78;2.80;;;;;;;3.45;46.68;95077.72;5062486;28;20226;-72
2022/02/13 03:23:22;;;;;;;6.65;2.50;;;;;;;3.39;45.31;95067.09;5062470;28;20353;-72
2022/02/13 03:25:48;;;;;;;6.80;2.63;;;;;;;3.47;45.66;95083.56;5062284;28;20017;-72
2022/02/13 03:28:14;;;;;;;7.47;2.83;;;;;;;3.52;44.79;95083.63;5062193;28;20055;-72
2022/02/13 03:30:40;;;;;;;5.25;2.25;;;;;;;3.51;44.86;95076.78;5062475;28;20047;-72
2022/02/13 03:33:06;;;;;;;6.60;2.50;;;;;;;3.50;44.68;95083.91;5062495;28;20219;-71
2022/02/13 03:35:32;;;;;;;6.70;2.67;;;;;;;3.48;44.79;95080.69;5062715;28;20020;-71
2022/02/13 03:37:57;;;;;;;5.13;2.65;;;;;;;3.46;44.44;95081.94;5062533;28;20017;-71
2022/02/13 03:40:23;;;;;;;4.85;2.08;;;;;;;3.44;44.49;95076.13;5062253;28;20127;-71
2022/02/13 03:42:49;;;;;;;6.15;2.55;;;;;;;3.41;44.52;95080.84;5062120;28;20021;-71
2022/02/13 03:45:15;;;;;;;8.20;2.17;;;;;;;3.39;44.40;95072.38;5061997;28;20040;-71
2022/02/13 03:47:41;;;;;;;9.57;2.50;;;;;;;3.35;44.25;95081.78;5062280;28;20017;-71
2022/02/13 03:50:07;;;;;;;4.68;2.50;;;;;;;3.34;44.45;95087.31;5062142;28;20072;-71
2022/02/13 03:52:33;;;;;;;4.60;2.10;;;;;;;3.33;44.62;95073.31;5062067;28;20059;-71
2022/02/13 03:55:01;;;;;;;3.30;2.05;;;;;;;3.31;44.44;95074.59;5062255;28;20025;-71
2022/02/13 03:57:29;;;;;;;5.70;2.63;;;;;;;3.27;44.61;95074.25;5062150;28;20044;-71
2022/02/13 03:59:56;;;;;;;8.68;2.17;;;;;;;3.24;45.01;95085.28;5062128;28;20287;-71
2022/02/13 04:02:22;;;;;;;5.43;2.25;;;;;;;3.27;44.78;95076.09;5061918;28;20025;-71
2022/02/13 04:04:48;;;;;;;5.35;2.47;;;;;;;3.28;44.69;95090.88;5062162;28;20262;-71
2022/02/13 04:07:14;;;;;;;5.88;3.08;;;;;;;3.26;44.58;95088.50;5061947;28;20092;-73
2022/02/13 04:09:39;;;;;;;4.75;2.22;;;;;;;3.26;44.73;95077.13;5062033;28;20219;-72
2022/02/13 04:12:05;;;;;;;9.02;2.47;;;;;;;3.25;44.75;95076.34;5061881;28;20190;-72
2022/02/13 04:14:31;;;;;;;4.97;2.15;;;;;;;3.26;44.90;95079.75;5062116;28;20055;-72
2022/02/13 04:16:56;;;;;;;4.05;2.15;;;;;;;3.24;45.03;95081.84;5061697;28;20067;-72
2022/02/13 04:19:22;;;;;;;5.43;2.13;;;;;;;3.25;45.11;95081.59;5061760;28;20223;-72
2022/02/13 04:21:47;;;;;;;6.53;2.40;;;;;;;3.27;45.34;95084.00;5062623;28;20135;-72
2022/02/13 04:24:13;;;;;;;9.15;2.78;;;;;;;3.26;45.34;95093.75;5065788;28;20028;-72
2022/02/13 04:26:40;;;;;;;6.88;2.55;;;;;;;3.21;45.74;95083.13;5065799;28;20028;-72
2022/02/13 04:29:06;;;;;;;4.10;2.40;;;;;;;3.19;46.34;95085.19;5065714;28;20028;-72
2022/02/13 04:31:31;;;;;;;6.07;2.70;;;;;;;3.18;46.19;95083.59;5065903;28;20028;-72
2022/02/13 04:33:57;;;;;;;7.22;3.28;;;;;;;3.17;46.42;95084.63;5065554;28;20204;-72
2022/02/13 04:36:22;;;;;;;5.57;2.72;;;;;;;3.09;47.29;95087.63;5065619;28;20055;-72
2022/02/13 04:38:48;;;;;;;8.35;3.95;;;;;;;3.06;47.75;95085.50;5065427;28;20032;-72
2022/02/13 04:41:13;;;;;;;6.80;2.97;;;;;;;3.10;47.92;95084.78;5065507;28;20025;-71
2022/02/13 04:43:38;;;;;;;7.53;3.35;;;;;;;3.08;48.32;95086.84;5065584;28;20021;-71
2022/02/13 04:46:04;;;;;;;9.82;3.05;;;;;;;3.01;48.72;95080.91;5065502;28;20353;-71
2022/02/13 04:48:29;;;;;;;9.52;3.28;;;;;;;3.05;49.31;95073.34;5065640;28;20025;-71
2022/02/13 04:50:55;;;;;;;11.93;2.95;;;;;;;3.08;49.44;95075.50;5065355;28;20128;-71
2022/02/13 04:53:21;;;;;;;7.68;2.95;;;;;;;3.01;49.49;95084.34;5065134;28;20017;-72
2022/02/13 04:55:47;;;;;;;6.10;2.97;;;;;;;3.00;50.13;95079.31;5065274;28;20065;-73
2022/02/13 04:58:12;;;;;;;8.10;3.67;;;;;;;3.01;50.25;95087.00;5065022;28;20096;-72
2022/02/13 05:00:38;;;;;;;5.57;3.10;;;;;;;2.94;51.10;95081.06;5065074;28;20021;-72
2022/02/13 05:03:03;;;;;;;11.20;3.05;;;;;;;2.94;51.20;95080.25;5065123;28;20021;-72
2022/02/13 05:05:29;;;;;;;6.40;3.38;;;;;;;2.92;51.60;95084.97;5065163;28;20088;-72
2022/02/13 05:07:54;;;;;;;7.32;3.28;;;;;;;2.90;52.33;95079.13;5065024;28;20307;-72
2022/02/13 05:10:20;;;;;;;11.82;3.50;;;;;;;2.94;52.36;95078.41;5065068;28;20021;-72
2022/02/13 05:12:45;;;;;;;6.45;3.67;;;;;;;2.89;52.93;95073.06;5064735;28;20249;-72
2022/02/13 05:15:10;;;;;;;8.32;2.70;;;;;;;2.87;52.97;95082.22;5064733;28;20056;-72
2022/02/13 05:17:36;;;;;;;7.85;2.83;;;;;;;2.85;53.26;95077.22;5064818;28;20048;-72
2022/02/13 05:20:06;;;;;;;8.95;4.28;;;;;;;2.80;53.43;95072.63;5064803;28;20055;-72
2022/02/13 05:22:32;;;;;;;5.43;3.05;;;;;;;2.82;53.73;95069.75;5064766;28;20327;-72
2022/02/13 05:24:57;;;;;;;7.53;3.90;;;;;;;2.77;54.11;95083.63;5064812;28;20027;-72
2022/02/13 05:27:23;;;;;;;7.18;3.55;;;;;;;2.73;54.33;95089.63;5064606;28;20017;-73
2022/02/13 05:29:48;;;;;;;9.68;3.65;;;;;;;2.72;54.77;95080.09;5064477;28;20020;-72
2022/02/13 05:32:14;;;;;;;9.35;3.83;;;;;;;2.67;55.12;95080.00;5064523;28;20051;-72
2022/02/13 05:34:39;;;;;;;9.95;3.65;;;;;;;2.66;55.09;95081.03;5063248;28;20048;-72
2022/02/13 05:37:05;;;;;;;6.05;3.65;;;;;;;2.66;55.36;95084.47;5064473;28;20028;-72
2022/02/13 05:39:31;;;;;;;15.60;4.30;;;;;;;2.65;55.22;95082.06;5064586;28;20016;-72
2022/02/13 05:41:57;;;;;;;7.47;3.60;;;;;;;2.64;55.22;95085.72;5064350;28;20378;-72
2022/02/13 05:44:22;;;;;;;6.68;3.85;;;;;;;2.64;55.42;95080.47;5063174;28;20044;-72
2022/02/13 05:46:48;;;;;;;15.88;4.15;;;;;;;2.64;55.53;95086.53;5064309;28;20059;-72
2022/02/13 05:49:13;;;;;;;10.50;4.43;;;;;;;2.66;55.76;95079.19;5064237;28;20341;-72
2022/02/13 05:51:39;;;;;;;8.35;3.92;;;;;;;2.70;55.67;95095.31;5063010;28;20103;-72
2022/02/13 05:54:04;;;;;;;8.27;4.10;;;;;;;2.74;55.77;95091.19;5064201;28;20024;-72
2022/02/13 05:56:30;;;;;;;11.50;4.10;;;;;;;2.75;55.91;95098.88;5064020;28;20197;-72
2022/02/13 05:58:56;;;;;;;8.55;4.32;;;;;;;2.74;55.72;95085.94;5063949;28;20059;-72
2022/02/13 06:01:22;;;;;;;8.90;4.03;;;;;;;2.78;55.96;95100.22;5063839;28;20032;-72
2022/02/13 06:03:47;;;;;;;8.70;3.97;;;;;;;2.76;56.34;95099.66;5063911;28;20048;-71
2022/02/13 06:06:13;;;;;;;9.38;5.05;;;;;;;2.69;57.08;95101.63;5063744;28;20055;-72
2022/02/13 06:08:39;;;;;;;10.73;4.55;;;;;;;2.68;57.07;95089.50;5063791;28;20036;-72
2022/02/13 06:11:05;;;;;;;9.43;5.15;;;;;;;2.66;57.62;95102.09;5063671;28;20135;-72
2022/02/13 06:13:31;;;;;;;15.45;5.60;;;;;;;2.64;57.62;95101.53;5063774;28;20035;-71
2022/02/13 06:15:57;;;;;;;12.45;5.15;;;;;;;2.62;58.03;95096.47;5063419;28;20107;-72
2022/02/13 06:18:22;;;;;;;9.23;4.85;;;;;;;2.61;58.04;95098.31;5063568;28;20024;-72
2022/02/13 06:20:48;;;;;;;17.05;5.70;;;;;;;2.65;58.22;95103.94;5063485;28;20086;-72
2022/02/13 06:23:14;;;;;;;8.38;5.20;;;;;;;2.71;57.67;95110.09;5063491;28;20024;-72
2022/02/13 06:25:40;;;;;;;10.68;5.15;;;;;;;2.72;58.01;95115.13;5063493;28;20121;-73
2022/02/13 06:28:06;;;;;;;8.95;4.80;;;;;;;2.70;58.69;95111.13;5063481;28;20020;-72
2022/02/13 06:30:32;;;;;;;9.93;5.10;;;;;;;2.75;58.75;95116.50;5063337;28;20319;-72
2022/02/13 06:32:59;;;;;;;13.02;4.97;;;;;;;2.79;58.57;95113.16;5063360;28;20021;-72
2022/02/13 06:35:25;;;;;;;13.05;5.85;;;;;;;2.76;58.78;95116.25;5063147;28;20032;-73
2022/02/13 06:37:52;;;;;;;8.77;5.43;;;;;;;2.74;59.12;95115.69;5063040;28;20025;-73
2022/02/13 06:40:17;;;;;;;18.67;6.13;;;;;;;2.83;59.33;95118.78;5063283;28;20041;-72
2022/02/13 06:42:43;;;;;;;10.98;6.20;;;;;;;2.82;59.69;95117.16;5063024;28;20223;-72
2022/02/13 06:45:09;;;;;;;16.35;6.22;;;;;;;2.83;59.89;95121.41;5062778;28;20025;-72
2022/02/13 06:47:35;;;;;;;13.15;5.97;;;;;;;2.84;60.54;95123.00;5063188;28;20021;-72
2022/02/13 06:50:00;;;;;;;10.18;5.28;;;;;;;2.85;60.68;95119.34;5062959;28;20032;-72
2022/02/13 06:52:26;;;;;;;9.77;5.57;;;;;;;2.85;60.74;95123.78;5062779;28;20087;-72
2022/02/13 06:54:51;;;;;;;11.65;6.05;;;;;;;2.82;61.38;95125.06;5062869;28;20103;-73
2022/02/13 06:57:17;;;;;;;9.88;6.10;;;;;;;2.80;61.61;95121.84;5063126;28;20024;-73
2022/02/13 06:59:42;;;;;;;12.68;6.55;;;;;;;2.83;61.75;95124.03;5062893;28;20021;-73
2022/02/13 07:02:10;;;;;;;11.68;6.10;;;;;;;2.81;61.64;95120.84;5062801;28;20051;-73
2022/02/13 07:04:37;;;;;;;9.07;5.50;;;;;;;2.75;61.97;95121.78;5062696;28;20021;-72
2022/02/13 07:07:03;;;;;;;9.55;5.60;;;;;;;2.69;62.64;95120.88;5062825;28;20020;-72
2022/02/13 07:09:28;;;;;;;16.05;6.35;;;;;;;2.71;62.89;95123.28;5062415;28;20031;-72
2022/02/13 07:11:54;;;;;;;11.63;6.55;;;;;;;2.71;63.14;95131.16;5062658;28;20049;-72
2022/02/13 07:14:19;;;;;;;17.10;7.03;;;;;;;2.68;63.75;95121.09;5062526;28;20035;-72
2022/02/13 07:16:44;;;;;;;12.27;7.47;;;;;;;2.63;64.68;95126.25;5062493;28;20044;-72
2022/02/13 07:19:10;;;;;;;16.67;8.77;;;;;;;2.69;64.34;95127.97;5062440;28;20315;-73
2022/02/13 07:21:36;;;;;;;12.90;7.78;;;;;;;2.67;64.79;95122.94;5062470;28;20016;-73
2022/02/13 07:24:02;;;;;;;12.65;6.40;;;;;;;2.71;65.07;95125.91;5062260;28;20225;-73
2022/02/13 07:26:27;;;;;;;12.70;6.93;;;;;;;2.67;65.22;95127.41;5061038;28;20120;-73
2022/02/13 07:28:59;;;;;;;14.13;6.72;;;;;;;2.68;65.52;95115.81;5061796;28;20053;-73
2022/02/13 07:31:25;;;;;;;14.17;7.70;;;;;;;2.58;65.80;95119.84;5061931;28;20021;-73
2022/02/13 07:33:50;;;;;;;13.45;7.55;;;;;;;2.61;66.10;95124.66;5062264;28;20267;-73
2022/02/13 07:36:15;;;;;;;18.20;8.13;;;;;;;2.61;66.33;95116.75;5060712;28;20028;-73
2022/02/13 07:38:41;;;;;;;15.68;8.82;;;;;;;2.62;66.47;95125.44;5062256;28;20029;-72
2022/02/13 07:41:07;;;;;;;14.13;7.70;;;;;;;2.62;66.50;95120.19;5062269;28;20028;-73
2022/02/13 07:43:33;;;;;;;17.63;7.95;;;;;;;2.57;66.61;95112.97;5062252;28;20314;-73
2022/02/13 07:45:59;;;;;;;14.30;8.00;;;;;;;2.59;66.54;95116.19;5061948;28;20021;-74
2022/02/13 07:48:25;;;;;;;14.02;9.07;;;;;;;2.57;66.57;95107.72;5062117;28;20020;-73
2022/02/13 07:50:50;;;;;;;20.75;8.13;;;;;;;2.52;66.90;95114.69;5062329;28;20040;-73
2022/02/13 07:53:16;;;;;;;17.33;9.27;;;;;;;2.56;67.41;95110.56;5062297;28;20013;-73
2022/02/13 07:55:41;;;;;;;22.52;8.55;;;;;;;2.63;66.90;95105.19;5062060;28;20353;-73
2022/02/13 07:58:07;;;;;;;14.27;8.18;;;;;;;2.58;66.77;95104.03;5065526;28;20154;-72
2022/02/13 08:00:33;;;;;;;20.48;9.25;;;;;;;2.67;67.12;95106.34;5066242;28;20021;-73
2022/02/13 08:02:59;;;;;;;16.42;8.93;;;;;;;2.70;66.38;95100.59;5066072;28;20104;-73
2022/02/13 08:05:25;;;;;;;17.50;8.43;;;;;;;2.75;66.25;95108.59;5066323;28;20028;-73
2022/02/13 08:07:50;;;;;;;18.70;8.60;;;;;;;2.75;66.69;95104.13;5066128;28;20104;-73
2022/02/13 08:10:17;;;;;;;19.65;8.30;;;;;;;2.76;65.95;95110.19;5065889;28;20127;-73
2022/02/13 08:12:44;;;;;;;14.70;7.97;;;;;;;2.74;65.98;95107.00;5065682;28;20056;-73
2022/02/13 08:15:10;;;;;;;14.80;8.30;;;;;;;2.81;65.68;95110.31;5065845;28;20021;-73
2022/02/13 08:17:35;;;;;;;13.75;7.72;;;;;;;2.79;65.37;95105.28;5066074;28;20228;-73
2022/02/13 08:20:05;;;;;;;18.02;8.80;;;;;;;2.81;65.83;95105.03;5064516;28;20210;-73
2022/02/13 08:22:32;;;;;;;13.70;7.95;;;;;;;2.83;65.75;95110.06;5065734;28;20031;-73
2022/02/13 08:24:58;;;;;;;15.20;6.55;;;;;;;2.90;65.12;95100.19;5065459;28;20035;-73
2022/02/13 08:27:23;;;;;;;14.05;7.80;;;;;;;2.96;64.80;95105.31;5065406;28;20021;-73
2022/02/13 08:29:51;;;;;;;13.43;7.40;;;;;;;3.00;65.21;95101.19;5065210;28;20020;-73
2022/02/13 08:32:16;;;;;;;12.65;6.80;;;;;;;3.16;65.37;95093.56;5065056;28;20029;-73
2022/02/13 08:34:42;;;;;;;12.25;6.10;;;;;;;3.25;63.80;95102.69;5065441;28;20025;-73
2022/02/13 08:37:07;;;;;;;11.93;6.40;;;;;;;3.33;64.07;95115.47;5065593;28;20261;-73
2022/02/13 08:39:33;;;;;;;11.63;6.05;;;;;;;3.45;63.09;95096.19;5065441;28;20331;-73
2022/02/13 08:41:58;;;;;;;13.32;6.55;;;;;;;3.58;63.21;95103.78;5064929;28;20025;-73
2022/02/13 08:44:23;;;;;;;11.73;6.90;;;;;;;3.72;61.62;95096.34;5065167;28;20017;-74
2022/02/13 08:46:49;;;;;;;11.45;5.95;;;;;;;3.79;61.85;95097.00;5065185;28;20028;-74
2022/02/13 08:49:14;;;;;;;10.95;5.70;;;;;;;3.91;61.56;95097.72;5065300;28;20021;-74
2022/02/13 08:51:40;;;;;;;13.30;6.03;;;;;;;3.89;61.48;95107.72;5065151;28;20080;-74
2022/02/13 08:54:05;;;;;;;13.07;6.70;;;;;;;3.93;60.91;95093.00;5065227;28;20108;-74
2022/02/13 08:56:30;;;;;;;11.77;6.82;;;;;;;4.05;60.87;95103.50;5064978;28;20028;-73
2022/02/13 08:58:57;;;;;;;23.30;8.75;;;;;;;4.54;66.63;95097.53;5065284;28;20028;-74
2022/02/13 09:01:23;;;;;;;12.25;5.97;;;;;;;4.74;59.33;95104.94;5064940;28;20032;-74
2022/02/13 09:03:48;;;;;;;10.98;6.50;;;;;;;4.87;58.61;95096.66;5064876;28;20021;-74
2022/02/13 09:06:13;;;;;;;9.73;6.68;;;;;;;4.96;58.13;95103.06;5064554;28;20071;-72
2022/02/13 09:08:39;;;;;;;10.77;5.03;;;;;;;5.07;57.34;95101.38;5064517;28;20048;-72
2022/02/13 09:11:04;;;;;;;18.20;5.95;;;;;;;5.15;57.25;95111.50;5064766;28;20032;-72
2022/02/13 09:13:30;;;;;;;12.60;6.65;;;;;;;5.22;57.21;95106.81;5064704;28;20355;-72
2022/02/13 09:15:55;;;;;;;9.80;6.05;;;;;;;5.19;56.81;95109.97;5064717;28;20083;-72
2022/02/13 09:18:22;;;;;;;9.27;5.40;;;;;;;5.19;56.46;95114.41;5064640;28;20303;-73
2022/02/13 09:20:47;;;;;;;10.68;6.40;;;;;;;5.21;57.16;95113.16;5064652;28;20122;-73
2022/02/13 09:23:17;;;;;;;10.52;6.10;;;;;;;5.21;57.60;95112.31;5064546;28;20025;-73
2022/02/13 09:25:44;;;;;;;13.38;6.05;;;;;;;5.20;57.67;95105.47;5064663;28;20024;-72
2022/02/13 09:28:11;;;;;;;9.88;6.40;;;;;;;5.15;57.07;95106.22;5064510;28;20032;-72
2022/02/13 09:30:36;;;;;;;15.23;7.18;;;;;;;5.16;57.16;95101.72;5064807;28;20082;-72
2022/02/13 09:33:02;;;;;;;13.38;5.82;;;;;;;5.18;56.20;95092.50;5064545;28;20016;-72
2022/02/13 09:35:28;;;;;;;14.00;5.82;;;;;;;5.25;56.38;95100.25;5064556;28;20047;-73
2022/02/13 09:37:53;;;;;;;12.13;5.65;;;;;;;5.11;55.89;95094.53;5064550;28;20028;-73
2022/02/13 09:40:19;;;;;;;11.63;5.68;;;;;;;5.02;56.33;95096.81;5064166;28;20025;-73
2022/02/13 09:42:46;;;;;;;10.77;5.95;;;;;;;5.12;56.30;95103.25;5064144;28;20231;-73
2022/02/13 09:45:13;;;;;;;10.68;5.95;;;;;;;5.22;55.69;95090.16;5064077;28;20033;-73
2022/02/13 09:47:38;;;;;;;12.35;5.88;;;;;;;5.20;55.20;95085.09;5064184;28;20124;-73
2022/02/13 09:50:08;;;;;;;11.35;5.75;;;;;;;5.22;54.33;95095.44;5064187;28;20103;-73
2022/02/13 09:52:34;;;;;;;9.35;5.43;;;;;;;5.18;54.61;95079.28;5063983;28;20252;-73
2022/02/13 09:55:00;;;;;;;13.45;6.25;;;;;;;5.21;54.09;95077.97;5063878;28;20052;-73
2022/02/13 10:00:10;;;;;;;8.77;5.50;;;;;;;5.41;53.86;95070.25;5063646;28;20074;-73
2022/02/13 10:02:41;;;;;;;17.67;5.72;;;;;;;5.38;52.98;95062.81;5063949;28;20044;-73
2022/02/13 10:05:09;;;;;;;14.93;6.00;;;;;;;5.43;53.09;95054.94;5063943;28;20315;-74
2022/02/13 10:07:36;;;;;;;13.85;7.22;;;;;;;5.57;52.97;95055.31;5063714;28;20048;-73
2022/02/13 10:10:04;;;;;;;17.50;5.85;;;;;;;5.71;52.93;95058.34;5063490;28;20104;-73
2022/02/13 10:12:42;;;;;;;18.70;6.32;;;;;;;5.83;51.71;95044.94;5063612;28;20068;-73
2022/02/13 10:15:20;;;;;;;16.48;6.57;;;;;;;6.00;51.89;95050.09;5063649;28;20066;-73
2022/02/13 10:18:02;;;;;;;16.25;6.75;;;;;;;6.16;50.81;95043.06;5063562;28;20345;-72
2022/02/13 10:20:27;;;;;;;;;;;;;;;6.19;50.41;95040.69;5063499;28;20081;-72
2022/02/13 10:22:53;;;;;;;21.02;6.47;;;;;;;6.25;50.54;95030.13;5063481;28;19908;-72
2022/02/13 10:25:19;;;;;;;14.05;6.43;;;;;;;6.31;50.34;95034.41;5063448;28;20027;-73
2022/02/13 10:27:48;;;;;;;10.20;5.60;;;;;;;6.37;49.99;95038.66;5063189;28;20028;-72
2022/02/13 10:30:33;;;;;;;15.75;7.85;;;;;;;6.43;49.75;95030.50;5063525;28;20021;-73
2022/02/13 10:33:20;;;;;;;14.23;6.25;;;;;;;6.35;49.79;95014.28;5063453;28;20040;-73
2022/02/13 10:36:05;;;;;;;12.15;6.75;;;;;;;6.37;49.84;95017.47;5063537;28;20265;-73
2022/02/13 10:38:42;;;;;;;13.27;7.30;;;;;;;6.39;49.90;95008.25;5063336;28;20242;-73
2022/02/13 10:41:16;;;;;;;16.15;6.95;;;;;;;6.34;49.66;95007.41;5062249;28;20029;-73
2022/02/13 10:43:59;;;;;;;14.50;7.18;;;;;;;6.36;49.52;95006.09;5063158;28;20051;-73
2022/02/13 10:46:30;;;;;;;21.85;6.55;;;;;;;6.34;48.84;95002.13;5062786;28;20025;-73
2022/02/13 10:48:56;;;;;;;20.17;6.75;;;;;;;6.29;49.45;94999.44;5063133;28;20029;-73
2022/02/13 10:51:23;;;;;;;19.45;7.63;;;;;;;6.29;49.31;94988.84;5062903;28;20099;-73
2022/02/13 10:53:50;;;;;;;14.60;7.72;;;;;;;6.25;49.39;94988.59;5062967;28;20040;-73
2022/02/13 10:56:15;;;;;;;15.50;7.88;;;;;;;6.28;48.80;94981.97;5062806;28;20021;-73
2022/02/13 10:58:41;;;;;;;13.80;7.25;;;;;;;6.26;49.15;94981.44;5062859;28;20276;-74
2022/02/13 11:01:07;;;;;;;33.95;8.88;;;;;;;6.34;49.21;94975.63;5062952;28;20029;-74
2022/02/13 11:03:34;;;;;;;13.50;7.68;;;;;;;6.37;48.38;94977.75;5062745;28;20032;-74
2022/02/13 11:06:01;;;;;;;14.82;7.05;;;;;;;6.39;48.55;94968.53;5062770;28;20058;-74
2022/02/13 11:08:30;;;;;;;24.02;9.57;;;;;;;6.50;49.41;94968.56;5062633;28;20023;-74
2022/02/13 11:10:57;;;;;;;15.70;7.32;;;;;;;6.54;48.73;94954.53;5062485;28;20020;-74
2022/02/13 11:13:33;;;;;;;18.42;7.90;;;;;;;6.60;48.37;94945.53;5062628;28;20021;-74
2022/02/13 11:15:59;;;;;;;18.23;7.53;;;;;;;6.70;48.59;94954.59;5062450;28;20044;-74
2022/02/13 11:18:27;;;;;;;26.15;8.57;;;;;;;6.79;48.25;94945.03;5062449;28;20047;-74
2022/02/13 11:20:55;;;;;;;16.00;7.47;;;;;;;6.74;47.65;94934.44;5062575;28;20021;-74
2022/02/13 11:23:22;;;;;;;18.40;6.57;;;;;;;6.88;47.17;94930.22;5062538;28;20032;-74
2022/02/13 11:26:02;;;;;;;18.15;7.28;;;;;;;7.01;46.98;94928.91;5062471;28;20215;-74
2022/02/13 11:28:45;;;;;;;13.50;6.63;;;;;;;7.14;46.27;94916.97;5062205;28;20131;-74
2022/02/13 11:31:42;;;;;;;9.98;6.00;;;;;;;7.17;45.85;94914.59;5061470;28;20021;-74
2022/02/13 11:34:11;;;;;;;12.57;6.50;;;;;;;7.21;45.79;94909.56;5062227;28;20119;-73
2022/02/13 11:36:41;;;;;;;14.85;6.60;;;;;;;7.34;45.96;94911.69;5062583;28;20039;-73